createdAt,value
2018-08-04T00:02:00.283Z,7.32
2018-08-04T00:04:27.310Z,7.80
2018-08-04T00:06:54.345Z,7.65
2018-08-04T00:09:21.292Z,7.53
2018-08-04T00:11:48.351Z,7.70
2018-08-04T00:14:15.395Z,7.32
2018-08-04T00:16:42.438Z,7.95
2018-08-04T00:19:09.487Z,7.97
2018-08-04T00:21:36.542Z,8.18
2018-08-04T00:24:03.483Z,7.50
2018-08-04T00:26:30.537Z,7.82
2018-08-04T00:28:57.579Z,7.32
2018-08-04T00:31:24.626Z,7.62
2018-08-04T00:33:51.575Z,7.53
2018-08-04T00:36:18.622Z,7.53
2018-08-04T00:38:45.677Z,7.78
2018-08-04T00:41:12.719Z,8.40
2018-08-04T00:43:39.768Z,7.78
2018-08-04T00:46:06.822Z,7.95
2018-08-04T00:48:33.866Z,7.87
2018-08-04T00:51:00.915Z,8.15
2018-08-04T00:53:28.324Z,8.60
2018-08-04T00:55:55.321Z,9.05
2018-08-04T00:58:22.372Z,9.07
2018-08-04T01:00:49.827Z,9.10
2018-08-04T01:03:16.883Z,9.98
2018-08-04T01:05:43.926Z,9.65
2018-08-04T01:08:11.382Z,9.75
2018-08-04T01:10:38.531Z,11.23
2018-08-04T01:13:05.581Z,10.23
2018-08-04T01:15:32.635Z,11.00
2018-08-04T01:17:59.681Z,11.60
2018-08-04T01:20:26.828Z,11.27
2018-08-04T01:22:53.877Z,11.25
2018-08-04T01:25:20.931Z,12.05
2018-08-04T01:27:47.974Z,11.23
2018-08-04T01:30:15.023Z,11.35
2018-08-04T01:32:42.077Z,12.32
2018-08-04T01:35:09.124Z,12.57
2018-08-04T01:37:36.177Z,12.98
2018-08-04T01:40:03.228Z,13.15
2018-08-04T01:42:32.266Z,12.43
2018-08-04T01:44:59.260Z,12.90
2018-08-04T01:47:26.310Z,12.65
2018-08-04T01:49:53.363Z,13.07
2018-08-04T01:52:20.407Z,12.95
2018-08-04T01:54:48.294Z,13.20
2018-08-04T01:57:15.324Z,13.23
2018-08-04T01:59:42.373Z,12.35
2018-08-04T02:02:09.427Z,11.93
2018-08-04T02:04:36.468Z,12.27
2018-08-04T02:07:03.519Z,13.02
2018-08-04T02:09:30.571Z,12.40
2018-08-04T02:11:57.614Z,13.80
2018-08-04T02:14:24.662Z,13.30
2018-08-04T02:16:51.716Z,12.32
2018-08-04T02:19:18.760Z,12.88
2018-08-04T02:21:45.809Z,12.30
2018-08-04T02:24:12.862Z,12.95
2018-08-04T02:26:39.910Z,12.23
2018-08-04T02:29:06.955Z,13.45
2018-08-04T02:31:34.008Z,13.10
2018-08-04T02:34:01.052Z,13.43
2018-08-04T02:36:28.925Z,13.65
2018-08-04T02:38:55.925Z,12.57
2018-08-04T02:41:22.975Z,13.48
2018-08-04T02:43:49.995Z,13.62
2018-08-04T02:46:17.011Z,13.80
2018-08-04T02:48:44.001Z,13.68
2018-08-04T02:51:11.006Z,13.23
2018-08-04T02:53:38.060Z,13.23
2018-08-04T02:56:05.051Z,12.65
2018-08-04T02:58:32.054Z,13.75
2018-08-04T03:00:59.100Z,12.95
2018-08-04T03:03:27.069Z,11.70
2018-08-04T03:05:54.122Z,12.18
2018-08-04T03:08:21.137Z,12.27
2018-08-04T03:10:48.214Z,11.25
2018-08-04T03:13:15.208Z,12.30
2018-08-04T03:15:42.208Z,12.65
2018-08-04T03:18:09.263Z,13.13
2018-08-04T03:20:36.308Z,12.90
2018-08-04T03:23:03.355Z,12.35
2018-08-04T03:25:30.407Z,13.48
2018-08-04T03:27:57.453Z,12.30
2018-08-04T03:30:24.505Z,13.10
2018-08-04T03:32:51.555Z,12.93
2018-08-04T03:35:18.599Z,12.43
2018-08-04T03:37:45.622Z,12.25
2018-08-04T03:40:12.702Z,10.82
2018-08-04T03:42:39.744Z,12.02
2018-08-04T03:45:07.816Z,12.45
2018-08-04T03:47:34.867Z,13.00
2018-08-04T03:50:01.880Z,12.45
2018-08-04T03:52:28.865Z,13.38
2018-08-04T03:54:55.916Z,12.45
2018-08-04T03:57:22.969Z,11.95
2018-08-04T03:59:50.032Z,11.98
2018-08-04T04:02:17.062Z,11.70
2018-08-04T04:04:44.103Z,12.25
2018-08-04T04:07:11.153Z,12.23
2018-08-04T04:09:38.214Z,12.35
2018-08-04T04:12:05.863Z,12.80
2018-08-04T04:14:32.911Z,12.40
2018-08-04T04:16:59.966Z,12.43
2018-08-04T04:19:26.960Z,12.43
2018-08-04T04:21:56.881Z,13.52
2018-08-04T04:24:23.976Z,13.43
2018-08-04T04:26:51.029Z,11.90
2018-08-04T04:29:18.179Z,12.98
2018-08-04T04:31:45.222Z,13.20
2018-08-04T04:34:12.270Z,12.98
2018-08-04T04:36:39.326Z,12.82
2018-08-04T04:39:06.371Z,13.07
2018-08-04T04:41:33.626Z,12.88
2018-08-04T04:44:00.670Z,12.45
2018-08-04T04:46:27.718Z,12.35
2018-08-04T04:48:55.640Z,13.07
2018-08-04T04:51:22.634Z,13.25
2018-08-04T04:53:49.689Z,12.80
2018-08-04T04:56:17.762Z,13.32
2018-08-04T04:58:44.805Z,12.30
2018-08-04T05:01:11.855Z,12.75
2018-08-04T05:03:39.523Z,12.73
2018-08-04T05:06:06.566Z,13.20
2018-08-04T05:08:33.614Z,13.57
2018-08-04T05:11:00.668Z,12.20
2018-08-04T05:13:27.663Z,12.68
2018-08-04T05:15:54.759Z,13.70
2018-08-04T05:18:21.815Z,13.75
2018-08-04T05:20:48.858Z,13.70
2018-08-04T05:23:15.906Z,13.18
2018-08-04T05:25:43.883Z,13.30
2018-08-04T05:28:10.933Z,13.50
2018-08-04T05:30:37.973Z,14.10
2018-08-04T05:33:05.032Z,13.70
2018-08-04T05:35:32.178Z,13.20
2018-08-04T05:37:59.221Z,14.00
2018-08-04T05:40:26.271Z,13.40
2018-08-04T05:42:53.262Z,13.90
2018-08-04T05:45:20.475Z,13.05
2018-08-04T05:47:47.518Z,14.13
2018-08-04T05:50:14.567Z,13.30
2018-08-04T05:52:41.622Z,13.35
2018-08-04T05:55:08.664Z,13.80
2018-08-04T05:57:35.717Z,13.55
2018-08-04T06:00:02.767Z,12.88
2018-08-04T06:02:29.812Z,13.27
2018-08-04T06:04:56.860Z,13.50
2018-08-04T06:07:24.931Z,13.38
2018-08-04T06:09:51.878Z,13.60
2018-08-04T06:12:18.925Z,13.13
2018-08-04T06:14:46.692Z,14.52
2018-08-04T06:17:14.150Z,13.52
2018-08-04T06:19:41.204Z,13.48
2018-08-04T06:22:08.286Z,12.57
2018-08-04T06:24:35.710Z,12.23
2018-08-04T06:27:02.753Z,10.93
2018-08-04T06:29:29.811Z,11.43
2018-08-04T06:31:57.266Z,10.88
2018-08-04T06:34:24.397Z,11.32
2018-08-04T06:36:53.771Z,11.73
2018-08-04T06:39:22.462Z,10.93
2018-08-04T06:41:49.655Z,10.98
2018-08-04T06:44:17.936Z,11.00
2018-08-04T06:46:44.986Z,10.90
2018-08-04T06:49:18.298Z,11.38
2018-08-04T06:51:45.941Z,10.43
2018-08-04T06:54:13.112Z,10.38
2018-08-04T06:56:40.245Z,10.95
2018-08-04T06:59:07.234Z,11.18
2018-08-04T07:01:34.235Z,11.25
2018-08-04T07:04:01.386Z,10.90
2018-08-04T07:06:28.439Z,10.82
2018-08-04T07:08:55.484Z,10.60
2018-08-04T07:11:22.740Z,10.60
2018-08-04T07:13:49.842Z,11.10
2018-08-04T07:16:16.833Z,10.68
2018-08-04T07:18:43.888Z,10.40
2018-08-04T07:21:10.931Z,11.10
2018-08-04T07:23:37.980Z,10.02
2018-08-04T07:26:04.974Z,10.68
2018-08-04T07:28:31.975Z,10.05
2018-08-04T07:30:59.029Z,10.25
2018-08-04T07:33:26.179Z,10.77
2018-08-04T07:35:53.329Z,10.68
2018-08-04T07:38:20.376Z,10.93
2018-08-04T07:40:47.729Z,10.50
2018-08-04T07:43:15.136Z,10.57
2018-08-04T07:45:42.645Z,10.07
2018-08-04T07:48:09.698Z,10.13
2018-08-04T07:50:36.749Z,11.27
2018-08-04T07:53:05.461Z,10.63
2018-08-04T07:55:32.580Z,10.07
2018-08-04T07:57:59.635Z,10.27
2018-08-04T08:00:27.805Z,10.88
2018-08-04T08:02:54.852Z,10.48
2018-08-04T08:05:22.720Z,10.60
2018-08-04T08:07:51.101Z,10.60
2018-08-04T08:10:18.206Z,9.85
2018-08-04T08:12:45.203Z,10.10
2018-08-04T08:15:13.678Z,10.85
2018-08-04T08:20:15.154Z,10.02
2018-08-04T08:22:42.199Z,10.23
2018-08-04T08:25:09.255Z,10.13
2018-08-04T08:27:37.018Z,10.35
2018-08-04T08:30:04.168Z,10.05
2018-08-04T08:32:31.250Z,9.73
2018-08-04T08:34:58.568Z,9.50
2018-08-04T08:37:25.622Z,10.30
2018-08-04T08:39:52.664Z,9.95
2018-08-04T08:42:19.713Z,10.98
2018-08-04T08:44:46.767Z,10.32
2018-08-04T08:47:13.821Z,10.82
2018-08-04T08:49:41.167Z,10.07
2018-08-04T08:52:08.224Z,9.57
2018-08-04T08:54:35.264Z,9.52
2018-08-04T08:57:02.313Z,9.82
2018-08-04T08:59:29.259Z,10.10
2018-08-04T09:01:56.455Z,10.50
2018-08-04T09:04:23.410Z,9.70
2018-08-04T09:06:52.911Z,9.82
2018-08-04T09:09:20.014Z,9.98
2018-08-04T09:11:47.061Z,9.93
2018-08-04T09:14:14.117Z,9.65
2018-08-04T09:16:41.158Z,9.90
2018-08-04T09:19:08.208Z,9.70
2018-08-04T09:21:35.356Z,10.50
2018-08-04T09:24:03.384Z,9.68
2018-08-04T09:26:31.123Z,10.95
2018-08-04T09:28:58.655Z,10.35
2018-08-04T09:31:25.708Z,9.95
2018-08-04T09:33:52.749Z,9.98
2018-08-04T09:36:19.800Z,10.18
2018-08-04T09:38:47.261Z,9.38
2018-08-04T09:41:14.411Z,10.50
2018-08-04T09:43:41.559Z,10.38
2018-08-04T09:46:11.335Z,9.55
2018-08-04T09:48:38.424Z,11.05
2018-08-04T09:51:05.524Z,10.80
2018-08-04T09:53:32.831Z,10.45
2018-08-04T09:55:59.873Z,10.27
2018-08-04T09:58:26.921Z,10.60
2018-08-04T10:00:54.360Z,10.88
2018-08-04T10:03:22.450Z,10.05
2018-08-04T10:05:49.505Z,10.50
2018-08-04T10:08:16.963Z,9.75
2018-08-04T10:10:43.904Z,9.82
2018-08-04T10:13:12.285Z,10.43
2018-08-04T10:15:39.644Z,9.80
2018-08-04T10:18:06.689Z,9.65
2018-08-04T10:20:33.738Z,9.93
2018-08-04T10:23:00.792Z,9.98
2018-08-04T10:25:27.833Z,9.48
2018-08-04T10:27:54.880Z,9.68
2018-08-04T10:30:21.936Z,9.45
2018-08-04T10:32:49.024Z,9.40
2018-08-04T10:35:16.437Z,9.38
2018-08-04T10:37:43.435Z,9.40
2018-08-04T10:40:10.538Z,9.35
2018-08-04T10:42:37.585Z,9.52
2018-08-04T10:45:04.630Z,9.02
2018-08-04T10:47:31.684Z,9.65
2018-08-04T10:49:59.452Z,9.57
2018-08-04T10:52:28.949Z,9.25
2018-08-04T10:54:58.461Z,8.93
2018-08-04T10:57:25.914Z,9.25
2018-08-04T10:59:53.585Z,9.48
2018-08-04T11:02:20.624Z,8.80
2018-08-04T11:04:47.673Z,9.52
2018-08-04T11:07:14.725Z,9.20
2018-08-04T11:09:41.768Z,9.35
2018-08-04T11:12:09.027Z,9.77
2018-08-04T11:14:36.069Z,9.27
2018-08-04T11:17:03.119Z,9.00
2018-08-04T11:19:30.270Z,9.20
2018-08-04T11:21:57.422Z,9.00
2018-08-04T11:24:24.473Z,8.70
2018-08-04T11:26:51.475Z,8.77
2018-08-04T11:29:18.667Z,8.90
2018-08-04T11:31:45.714Z,8.77
2018-08-04T11:34:13.388Z,8.60
2018-08-04T11:36:40.425Z,8.45
2018-08-04T11:39:07.424Z,8.93
2018-08-04T11:41:34.419Z,8.75
2018-08-04T11:44:01.467Z,8.85
2018-08-04T11:46:32.124Z,8.68
2018-08-04T11:48:59.575Z,8.77
2018-08-04T11:51:30.483Z,9.02
2018-08-04T11:53:57.700Z,8.43
2018-08-04T11:56:24.753Z,9.20
2018-08-04T11:58:51.792Z,8.77
2018-08-04T12:01:18.842Z,8.75
2018-08-04T12:03:46.298Z,8.48
2018-08-04T12:06:13.356Z,8.23
2018-08-04T12:08:41.829Z,9.18
2018-08-04T12:11:08.953Z,8.15
2018-08-04T12:13:35.925Z,8.18
2018-08-04T12:16:03.027Z,7.90
2018-08-04T12:18:30.125Z,8.50
2018-08-04T12:20:57.275Z,8.75
2018-08-04T12:23:25.348Z,7.85
2018-08-04T12:25:52.400Z,8.40
2018-08-04T12:28:19.444Z,7.78
2018-08-04T12:30:46.592Z,8.05
2018-08-04T12:33:13.642Z,7.97
2018-08-04T12:35:40.694Z,7.32
2018-08-04T12:38:07.845Z,7.72
2018-08-04T12:40:34.889Z,7.68
2018-08-04T12:43:01.936Z,8.05
2018-08-04T12:45:29.060Z,8.48
2018-08-04T12:47:56.035Z,7.22
2018-08-04T12:50:23.080Z,7.47
2018-08-04T12:52:50.231Z,7.93
2018-08-04T12:55:17.381Z,7.82
2018-08-04T12:57:44.435Z,7.65
2018-08-04T13:00:11.478Z,7.53
2018-08-04T13:02:38.560Z,8.20
2018-08-04T13:05:05.579Z,7.60
2018-08-04T13:07:32.623Z,7.72
2018-08-04T13:10:00.079Z,7.70
2018-08-04T13:12:27.434Z,7.75
2018-08-04T13:14:54.381Z,7.68
2018-08-04T13:17:21.838Z,8.15
2018-08-04T13:19:48.885Z,7.20
2018-08-04T13:22:16.140Z,7.15
2018-08-04T13:24:43.187Z,7.62
2018-08-04T13:27:11.260Z,7.35
2018-08-04T13:29:38.336Z,7.07
2018-08-04T13:32:06.790Z,7.15
2018-08-04T13:34:33.845Z,7.68
2018-08-04T13:37:01.010Z,7.65
2018-08-04T13:39:29.163Z,7.20
2018-08-04T13:41:56.216Z,7.30
2018-08-04T13:44:23.206Z,6.95
2018-08-04T13:46:51.131Z,7.25
2018-08-04T13:49:18.280Z,7.68
2018-08-04T13:51:46.967Z,7.30
2018-08-04T13:54:14.117Z,7.32
2018-08-04T13:56:41.161Z,7.05
2018-08-04T13:59:08.212Z,6.55
2018-08-04T14:01:35.263Z,6.82
2018-08-04T14:04:02.510Z,7.07
2018-08-04T14:06:29.659Z,7.20
2018-08-04T14:08:56.721Z,7.00
2018-08-04T14:11:23.713Z,6.80
2018-08-04T14:13:50.647Z,6.65
2018-08-04T14:16:17.648Z,6.68
2018-08-04T14:18:46.437Z,7.07
2018-08-04T14:21:16.301Z,7.43
2018-08-04T14:23:44.207Z,7.10
2018-08-04T14:26:11.378Z,7.05
2018-08-04T14:28:45.338Z,6.93
2018-08-04T14:31:13.556Z,7.40
2018-08-04T14:33:46.958Z,7.53
2018-08-04T14:36:14.110Z,8.13
2018-08-04T14:38:41.875Z,7.22
2018-08-04T14:41:09.125Z,7.90
2018-08-04T14:43:36.178Z,7.40
2018-08-04T14:46:03.219Z,7.18
2018-08-04T14:48:30.269Z,7.60
2018-08-04T14:50:57.321Z,8.13
2018-08-04T14:53:26.772Z,7.50
2018-08-04T14:55:53.710Z,7.87
2018-08-04T14:58:21.020Z,7.47
2018-08-04T15:00:48.016Z,7.55
2018-08-04T15:03:15.629Z,7.47
2018-08-04T15:05:42.686Z,7.45
2018-08-04T15:08:09.726Z,7.18
2018-08-04T15:10:37.797Z,7.90
2018-08-04T15:13:04.948Z,7.80
2018-08-04T15:15:35.688Z,7.90
2018-08-04T15:18:02.737Z,7.32
2018-08-04T15:20:31.426Z,8.00
2018-08-04T15:22:58.775Z,8.07
2018-08-04T15:25:26.697Z,7.50
2018-08-04T15:27:54.414Z,7.53
2018-08-04T15:30:22.583Z,8.23
2018-08-04T15:32:53.421Z,8.32
2018-08-04T15:35:20.979Z,7.72
2018-08-04T15:37:47.979Z,7.45
2018-08-04T15:40:15.489Z,7.93
2018-08-04T15:42:43.052Z,8.30
2018-08-04T15:45:10.100Z,7.97
2018-08-04T15:47:37.248Z,7.55
2018-08-04T15:50:04.223Z,8.57
2018-08-04T15:52:31.856Z,7.80
2018-08-04T15:54:58.910Z,7.87
2018-08-04T15:57:28.594Z,7.05
2018-08-04T15:59:55.869Z,7.60
2018-08-04T16:02:22.919Z,7.35
2018-08-04T16:04:49.972Z,7.85
2018-08-04T16:07:17.122Z,7.60
2018-08-04T16:09:44.472Z,7.43
2018-08-04T16:12:11.522Z,7.72
2018-08-04T16:14:38.671Z,8.45
2018-08-04T16:17:06.130Z,8.10
2018-08-04T16:19:37.161Z,7.47
2018-08-04T16:22:04.221Z,7.55
2018-08-04T16:24:33.191Z,7.12
2018-08-04T16:27:00.263Z,7.43
2018-08-04T16:29:27.317Z,7.93
2018-08-04T16:31:54.359Z,8.32
2018-08-04T16:34:21.409Z,8.02
2018-08-04T16:36:48.407Z,8.13
2018-08-04T16:39:17.149Z,7.50
2018-08-04T16:41:44.269Z,7.62
2018-08-04T16:44:16.365Z,7.85
2018-08-04T16:46:45.604Z,7.12
2018-08-04T16:49:19.303Z,7.25
2018-08-04T16:51:51.989Z,8.43
2018-08-04T16:54:21.534Z,8.15
2018-08-04T16:56:54.519Z,8.57
2018-08-04T16:59:21.798Z,8.15
2018-08-04T17:01:52.734Z,8.02
2018-08-04T17:04:19.932Z,8.65
2018-08-04T17:06:47.650Z,8.02
2018-08-04T17:09:16.188Z,8.55
2018-08-04T17:11:44.699Z,8.15
2018-08-04T17:14:11.868Z,8.70
2018-08-04T17:16:38.917Z,8.25
2018-08-04T17:19:06.066Z,8.23
2018-08-04T17:21:33.121Z,9.45
2018-08-04T17:24:00.163Z,8.50
2018-08-04T17:26:27.049Z,8.57
2018-08-04T17:28:54.978Z,8.80
2018-08-04T17:31:22.051Z,8.25
2018-08-04T17:33:49.075Z,9.00
2018-08-04T17:36:16.126Z,7.70
2018-08-04T17:38:43.178Z,8.32
2018-08-04T17:41:10.220Z,8.13
2018-08-04T17:43:37.218Z,8.88
2018-08-04T17:46:04.427Z,8.15
2018-08-04T17:48:31.493Z,8.85
2018-08-04T17:50:58.467Z,8.98
2018-08-04T17:53:25.777Z,8.93
2018-08-04T17:55:52.817Z,9.20
2018-08-04T17:58:19.818Z,8.90
2018-08-04T18:00:46.813Z,8.80
2018-08-04T18:03:13.861Z,8.90
2018-08-04T18:05:41.010Z,9.07
2018-08-04T18:14:20.682Z,8.85
2018-08-04T18:17:12.983Z,8.88
2018-08-04T18:19:39.987Z,9.13
2018-08-04T18:22:07.040Z,8.98
2018-08-04T18:24:34.035Z,9.30
2018-08-04T18:27:01.748Z,9.00
2018-08-04T18:29:29.414Z,8.95
2018-08-04T18:31:57.190Z,8.82
2018-08-04T18:34:24.223Z,9.07
2018-08-04T18:36:52.174Z,9.10
2018-08-04T18:39:19.192Z,9.32
2018-08-04T18:41:46.599Z,9.00
2018-08-04T18:44:13.749Z,9.25
2018-08-04T18:46:40.798Z,9.68
2018-08-04T18:49:07.799Z,9.25
2018-08-04T18:51:34.895Z,9.35
2018-08-04T18:54:01.942Z,9.00
2018-08-04T18:56:28.996Z,9.35
2018-08-04T18:58:56.244Z,8.93
2018-08-04T19:01:23.963Z,9.13
2018-08-04T19:03:50.956Z,9.68
2018-08-04T19:06:18.012Z,9.85
2018-08-04T19:08:45.519Z,9.57
2018-08-04T19:11:12.701Z,9.25
2018-08-04T19:13:39.765Z,9.55
2018-08-04T19:16:06.932Z,9.40
2018-08-04T19:18:33.971Z,9.13
2018-08-04T19:21:01.014Z,9.43
2018-08-04T19:23:28.061Z,9.70
2018-08-04T19:25:55.116Z,10.02
2018-08-04T19:28:22.181Z,10.00
2018-08-04T19:30:50.079Z,9.23
2018-08-04T19:33:17.076Z,9.70
2018-08-04T19:35:44.125Z,9.90
2018-08-04T19:38:11.178Z,10.25
2018-08-04T19:40:38.928Z,10.00
2018-08-04T19:43:05.987Z,10.05
2018-08-04T19:45:33.037Z,10.48
2018-08-04T19:48:00.139Z,10.02
2018-08-04T19:50:27.133Z,10.00
2018-08-04T19:52:54.795Z,10.95
2018-08-04T19:55:21.849Z,11.15
2018-08-04T19:57:48.893Z,10.55
2018-08-04T20:00:15.942Z,9.27
2018-08-04T20:02:44.396Z,10.13
2018-08-04T20:05:11.474Z,10.13
2018-08-04T20:07:40.063Z,10.25
2018-08-04T20:10:07.310Z,10.25
2018-08-04T20:12:34.314Z,9.55
2018-08-04T20:15:01.526Z,9.48
2018-08-04T20:17:28.666Z,10.20
2018-08-04T20:19:55.715Z,10.32
2018-08-04T20:22:24.397Z,10.35
2018-08-04T20:24:52.732Z,11.02
2018-08-04T20:27:19.925Z,10.05
2018-08-04T20:29:47.976Z,10.02
2018-08-04T20:32:15.463Z,10.02
2018-08-04T20:34:42.506Z,10.10
2018-08-04T20:37:09.658Z,10.13
2018-08-04T20:39:36.914Z,10.05
2018-08-04T20:42:05.096Z,9.75
2018-08-04T20:44:32.160Z,9.95
2018-08-04T20:47:00.318Z,10.05
2018-08-04T20:49:33.092Z,10.23
2018-08-04T20:52:04.452Z,10.88
2018-08-04T20:54:31.490Z,10.23
2018-08-04T20:56:59.671Z,9.88
2018-08-04T20:59:26.714Z,10.50
2018-08-04T21:01:55.402Z,11.93
2018-08-04T21:04:23.917Z,11.82
2018-08-04T21:06:51.136Z,10.88
2018-08-04T21:09:18.291Z,10.68
2018-08-04T21:11:45.401Z,10.27
2018-08-04T21:14:12.385Z,11.55
2018-08-04T21:16:39.433Z,11.23
2018-08-04T21:19:06.688Z,11.95
2018-08-04T21:21:33.735Z,11.25
2018-08-04T21:24:00.886Z,10.95
2018-08-04T21:26:27.940Z,11.10
2018-08-04T21:28:54.982Z,10.45
2018-08-04T21:31:23.700Z,10.32
2018-08-04T21:33:50.720Z,11.05
2018-08-04T21:36:17.773Z,11.85
2018-08-04T21:38:46.556Z,11.95
2018-08-04T21:41:15.115Z,12.00
2018-08-04T21:43:42.189Z,11.38
2018-08-04T21:46:09.240Z,11.15
2018-08-04T21:48:36.294Z,11.68
2018-08-04T21:51:03.336Z,11.82
2018-08-04T21:53:30.385Z,11.70
2018-08-04T21:55:57.934Z,12.30
2018-08-04T21:58:24.993Z,11.93
2018-08-04T22:00:52.305Z,11.90
2018-08-04T22:03:23.627Z,11.90
2018-08-04T22:05:51.054Z,11.32
2018-08-04T22:08:34.181Z,11.10
2018-08-04T22:11:01.185Z,12.20
2018-08-04T22:13:28.278Z,11.65
2018-08-04T22:15:55.328Z,11.55
2018-08-04T22:18:22.380Z,11.85
2018-08-04T22:20:50.245Z,11.95
2018-08-04T22:23:17.296Z,11.88
2018-08-04T22:25:44.340Z,12.02
2018-08-04T22:28:12.003Z,13.13
2018-08-04T22:30:39.056Z,11.88
2018-08-04T22:33:06.208Z,11.88
2018-08-04T22:35:34.841Z,11.38
2018-08-04T22:38:02.245Z,12.55
2018-08-04T22:40:29.294Z,12.30
2018-08-04T22:42:56.347Z,11.45
2018-08-04T22:45:26.360Z,12.35
2018-08-04T22:47:53.511Z,12.18
2018-08-04T22:50:20.508Z,12.40
2018-08-04T22:52:47.508Z,13.27
2018-08-04T22:55:14.559Z,14.23
2018-08-04T22:57:42.783Z,13.57
2018-08-04T23:00:09.880Z,12.88
2018-08-04T23:02:37.036Z,13.30
2018-08-04T23:05:04.026Z,12.75
2018-08-04T23:07:32.257Z,13.18
2018-08-04T23:09:59.310Z,13.13
2018-08-04T23:12:26.355Z,13.55
2018-08-04T23:14:53.401Z,12.48
2018-08-04T23:17:20.455Z,14.13
2018-08-04T23:19:47.450Z,14.55
2018-08-04T23:22:14.548Z,14.77
2018-08-04T23:24:41.602Z,14.73
2018-08-04T23:27:08.649Z,16.75
2018-08-04T23:29:35.647Z,16.17
2018-08-04T23:32:02.642Z,14.38
2018-08-04T23:34:29.692Z,14.63
2018-08-04T23:36:59.619Z,16.17
2018-08-04T23:39:27.062Z,16.70
2018-08-04T23:41:54.119Z,16.00
2018-08-04T23:44:21.158Z,15.48
2018-08-04T23:46:48.208Z,15.45
2018-08-04T23:49:16.435Z,15.02
2018-08-04T23:51:43.433Z,15.95
2018-08-04T23:54:10.486Z,15.50
2018-08-04T23:56:38.041Z,15.07
2018-08-04T23:59:05.095Z,15.88
